sensor_id;sensor_type;location;lat;lon;timestamp;temperature;humidity
28460;DHT22;32528;45.712;9.192;2023-03-01T00:00:05;4.30;97.50
28460;DHT22;32528;45.712;9.192;2023-03-01T00:02:12;4.30;97.30
28460;DHT22;32528;45.712;9.192;2023-03-01T00:04:12;4.10;96.90
28460;DHT22;32528;45.712;9.192;2023-03-01T00:06:14;4.00;97.00
28460;DHT22;32528;45.712;9.192;2023-03-01T00:08:14;3.90;97.30
28460;DHT22;32528;45.712;9.192;2023-03-01T00:10:16;3.90;97.70
28460;DHT22;32528;45.712;9.192;2023-03-01T00:12:16;3.70;97.90
28460;DHT22;32528;45.712;9.192;2023-03-01T00:14:17;3.70;98.10
28460;DHT22;32528;45.712;9.192;2023-03-01T00:16:21;3.70;98.40
28460;DHT22;32528;45.712;9.192;2023-03-01T00:18:22;3.70;98.50
28460;DHT22;32528;45.712;9.192;2023-03-01T00:20:23;3.70;98.20
28460;DHT22;32528;45.712;9.192;2023-03-01T00:22:24;3.70;98.30
28460;DHT22;32528;45.712;9.192;2023-03-01T00:24:26;3.70;98.30
28460;DHT22;32528;45.712;9.192;2023-03-01T00:26:28;3.70;98.30
28460;DHT22;32528;45.712;9.192;2023-03-01T00:28:28;3.70;98.30
28460;DHT22;32528;45.712;9.192;2023-03-01T00:30:29;3.60;98.30
28460;DHT22;32528;45.712;9.192;2023-03-01T00:32:30;3.60;98.30
28460;DHT22;32528;45.712;9.192;2023-03-01T00:34:31;3.50;98.40
28460;DHT22;32528;45.712;9.192;2023-03-01T00:36:34;3.50;98.40
28460;DHT22;32528;45.712;9.192;2023-03-01T00:38:40;3.50;98.30
28460;DHT22;32528;45.712;9.192;2023-03-01T00:40:41;3.40;98.60
28460;DHT22;32528;45.712;9.192;2023-03-01T00:42:41;3.40;98.60
28460;DHT22;32528;45.712;9.192;2023-03-01T00:44:42;3.40;98.40
28460;DHT22;32528;45.712;9.192;2023-03-01T00:46:43;3.30;98.30
28460;DHT22;32528;45.712;9.192;2023-03-01T00:48:45;3.30;98.10
28460;DHT22;32528;45.712;9.192;2023-03-01T00:50:46;3.20;98.10
28460;DHT22;32528;45.712;9.192;2023-03-01T00:52:47;3.20;98.40
28460;DHT22;32528;45.712;9.192;2023-03-01T00:54:47;3.10;98.80
28460;DHT22;32528;45.712;9.192;2023-03-01T00:56:48;3.10;99.00
28460;DHT22;32528;45.712;9.192;2023-03-01T00:58:49;3.00;99.00
28460;DHT22;32528;45.712;9.192;2023-03-01T01:00:51;3.10;99.10
28460;DHT22;32528;45.712;9.192;2023-03-01T01:02:53;3.10;99.10
28460;DHT22;32528;45.712;9.192;2023-03-01T01:04:53;3.00;99.10
28460;DHT22;32528;45.712;9.192;2023-03-01T01:06:54;3.00;99.20
28460;DHT22;32528;45.712;9.192;2023-03-01T01:08:56;2.90;99.30
28460;DHT22;32528;45.712;9.192;2023-03-01T01:10:57;2.90;99.50
28460;DHT22;32528;45.712;9.192;2023-03-01T01:12:58;2.90;99.70
28460;DHT22;32528;45.712;9.192;2023-03-01T01:14:58;2.80;99.80
28460;DHT22;32528;45.712;9.192;2023-03-01T01:16:59;2.90;99.90
28460;DHT22;32528;45.712;9.192;2023-03-01T01:19:00;2.80;99.90
28460;DHT22;32528;45.712;9.192;2023-03-01T01:21:13;2.80;99.90
28460;DHT22;32528;45.712;9.192;2023-03-01T01:23:14;2.80;99.80
28460;DHT22;32528;45.712;9.192;2023-03-01T01:25:14;2.80;99.80
28460;DHT22;32528;45.712;9.192;2023-03-01T01:27:15;2.80;99.90
28460;DHT22;32528;45.712;9.192;2023-03-01T01:29:16;2.80;99.90
28460;DHT22;32528;45.712;9.192;2023-03-01T01:31:18;2.70;99.90
28460;DHT22;32528;45.712;9.192;2023-03-01T01:33:18;2.70;99.90
28460;DHT22;32528;45.712;9.192;2023-03-01T01:35:19;2.70;99.90
28460;DHT22;32528;45.712;9.192;2023-03-01T01:37:20;2.70;99.90
28460;DHT22;32528;45.712;9.192;2023-03-01T01:39:22;2.70;99.90
28460;DHT22;32528;45.712;9.192;2023-03-01T01:41:25;2.70;99.90
28460;DHT22;32528;45.712;9.192;2023-03-01T01:43:28;2.60;99.90
28460;DHT22;32528;45.712;9.192;2023-03-01T01:45:33;2.60;99.90
28460;DHT22;32528;45.712;9.192;2023-03-01T01:47:34;2.70;99.90
28460;DHT22;32528;45.712;9.192;2023-03-01T01:49:46;2.70;99.90
28460;DHT22;32528;45.712;9.192;2023-03-01T01:51:49;2.60;99.90
28460;DHT22;32528;45.712;9.192;2023-03-01T01:53:56;2.60;99.90
28460;DHT22;32528;45.712;9.192;2023-03-01T01:56:00;2.60;99.90
28460;DHT22;32528;45.712;9.192;2023-03-01T01:58:04;2.60;99.90
28460;DHT22;32528;45.712;9.192;2023-03-01T02:00:11;2.60;99.90
28460;DHT22;32528;45.712;9.192;2023-03-01T02:02:15;2.60;99.90
28460;DHT22;32528;45.712;9.192;2023-03-01T02:04:16;2.60;99.90
28460;DHT22;32528;45.712;9.192;2023-03-01T02:06:26;2.60;99.90
28460;DHT22;32528;45.712;9.192;2023-03-01T02:08:31;2.60;99.90
28460;DHT22;32528;45.712;9.192;2023-03-01T02:10:34;2.50;99.90
28460;DHT22;32528;45.712;9.192;2023-03-01T02:12:36;2.60;99.90
28460;DHT22;32528;45.712;9.192;2023-03-01T02:14:36;2.60;99.90
28460;DHT22;32528;45.712;9.192;2023-03-01T02:16:37;2.60;99.90
28460;DHT22;32528;45.712;9.192;2023-03-01T02:18:39;2.60;99.90
28460;DHT22;32528;45.712;9.192;2023-03-01T02:21:03;2.60;99.90
28460;DHT22;32528;45.712;9.192;2023-03-01T02:23:06;2.60;99.90
28460;DHT22;32528;45.712;9.192;2023-03-01T02:27:22;2.60;99.90
28460;DHT22;32528;45.712;9.192;2023-03-01T02:29:25;2.60;99.90
28460;DHT22;32528;45.712;9.192;2023-03-01T02:31:27;2.50;99.90
28460;DHT22;32528;45.712;9.192;2023-03-01T02:33:44;2.50;99.90
28460;DHT22;32528;45.712;9.192;2023-03-01T02:35:45;2.50;99.90
28460;DHT22;32528;45.712;9.192;2023-03-01T02:37:46;2.60;99.90
28460;DHT22;32528;45.712;9.192;2023-03-01T02:39:53;2.60;99.90
28460;DHT22;32528;45.712;9.192;2023-03-01T02:41:58;2.60;99.90
28460;DHT22;32528;45.712;9.192;2023-03-01T02:44:00;2.70;99.90
28460;DHT22;32528;45.712;9.192;2023-03-01T02:46:14;2.70;99.90
28460;DHT22;32528;45.712;9.192;2023-03-01T02:48:15;2.80;99.90
28460;DHT22;32528;45.712;9.192;2023-03-01T02:54:49;2.70;99.90
28460;DHT22;32528;45.712;9.192;2023-03-01T02:56:52;2.70;99.90
28460;DHT22;32528;45.712;9.192;2023-03-01T02:58:55;2.60;99.90
28460;DHT22;32528;45.712;9.192;2023-03-01T03:01:01;2.60;99.90
28460;DHT22;32528;45.712;9.192;2023-03-01T03:03:02;2.60;99.90
28460;DHT22;32528;45.712;9.192;2023-03-01T03:05:10;2.50;99.90
28460;DHT22;32528;45.712;9.192;2023-03-01T03:07:11;2.50;99.90
28460;DHT22;32528;45.712;9.192;2023-03-01T03:09:15;2.50;99.90
28460;DHT22;32528;45.712;9.192;2023-03-01T03:11:16;2.50;99.90
28460;DHT22;32528;45.712;9.192;2023-03-01T03:13:16;2.50;99.90
28460;DHT22;32528;45.712;9.192;2023-03-01T03:15:17;2.50;99.90
28460;DHT22;32528;45.712;9.192;2023-03-01T03:17:18;2.50;99.90
28460;DHT22;32528;45.712;9.192;2023-03-01T03:19:20;2.40;99.90
28460;DHT22;32528;45.712;9.192;2023-03-01T03:21:20;2.30;99.90
28460;DHT22;32528;45.712;9.192;2023-03-01T03:23:21;2.40;99.90
28460;DHT22;32528;45.712;9.192;2023-03-01T03:25:25;2.40;99.90
28460;DHT22;32528;45.712;9.192;2023-03-01T03:27:28;2.40;99.90
28460;DHT22;32528;45.712;9.192;2023-03-01T03:29:29;2.30;99.90
28460;DHT22;32528;45.712;9.192;2023-03-01T03:31:29;2.30;99.90
28460;DHT22;32528;45.712;9.192;2023-03-01T03:33:31;2.30;99.90
28460;DHT22;32528;45.712;9.192;2023-03-01T03:35:34;2.30;99.90
28460;DHT22;32528;45.712;9.192;2023-03-01T03:37:37;2.30;99.90
28460;DHT22;32528;45.712;9.192;2023-03-01T03:39:56;2.30;99.90
28460;DHT22;32528;45.712;9.192;2023-03-01T03:41:57;2.30;99.90
28460;DHT22;32528;45.712;9.192;2023-03-01T03:43:59;2.30;99.90
28460;DHT22;32528;45.712;9.192;2023-03-01T03:46:00;2.30;99.90
28460;DHT22;32528;45.712;9.192;2023-03-01T03:48:02;2.30;99.90
28460;DHT22;32528;45.712;9.192;2023-03-01T03:50:03;2.20;99.90
28460;DHT22;32528;45.712;9.192;2023-03-01T03:52:03;2.40;99.90
28460;DHT22;32528;45.712;9.192;2023-03-01T03:54:04;2.40;99.90
28460;DHT22;32528;45.712;9.192;2023-03-01T03:56:06;2.30;99.90
28460;DHT22;32528;45.712;9.192;2023-03-01T03:58:09;2.30;99.90
28460;DHT22;32528;45.712;9.192;2023-03-01T04:00:11;2.30;99.90
28460;DHT22;32528;45.712;9.192;2023-03-01T04:02:15;2.30;99.90
28460;DHT22;32528;45.712;9.192;2023-03-01T04:04:22;2.30;99.90
28460;DHT22;32528;45.712;9.192;2023-03-01T04:06:23;2.20;99.90
28460;DHT22;32528;45.712;9.192;2023-03-01T04:08:24;2.20;99.90
28460;DHT22;32528;45.712;9.192;2023-03-01T04:10:25;2.20;99.90
28460;DHT22;32528;45.712;9.192;2023-03-01T04:12:25;2.20;99.90
28460;DHT22;32528;45.712;9.192;2023-03-01T04:14:26;2.20;99.90
28460;DHT22;32528;45.712;9.192;2023-03-01T04:16:27;2.20;99.90
28460;DHT22;32528;45.712;9.192;2023-03-01T04:18:28;2.20;99.90
28460;DHT22;32528;45.712;9.192;2023-03-01T04:20:31;2.10;99.90
28460;DHT22;32528;45.712;9.192;2023-03-01T04:22:33;2.10;99.90
28460;DHT22;32528;45.712;9.192;2023-03-01T04:24:35;2.10;99.90
28460;DHT22;32528;45.712;9.192;2023-03-01T04:26:36;2.00;99.90
28460;DHT22;32528;45.712;9.192;2023-03-01T04:28:39;2.00;99.90
28460;DHT22;32528;45.712;9.192;2023-03-01T04:30:40;1.90;99.90
28460;DHT22;32528;45.712;9.192;2023-03-01T04:32:42;1.90;99.90
28460;DHT22;32528;45.712;9.192;2023-03-01T04:34:42;1.90;99.90
28460;DHT22;32528;45.712;9.192;2023-03-01T04:36:43;1.80;99.90
28460;DHT22;32528;45.712;9.192;2023-03-01T04:38:44;1.80;99.90
28460;DHT22;32528;45.712;9.192;2023-03-01T04:40:48;1.80;99.90
28460;DHT22;32528;45.712;9.192;2023-03-01T04:42:50;1.90;99.90
28460;DHT22;32528;45.712;9.192;2023-03-01T04:44:51;1.80;99.90
28460;DHT22;32528;45.712;9.192;2023-03-01T04:46:51;1.80;99.90
28460;DHT22;32528;45.712;9.192;2023-03-01T04:48:52;1.80;99.90
28460;DHT22;32528;45.712;9.192;2023-03-01T04:50:53;1.80;99.90
28460;DHT22;32528;45.712;9.192;2023-03-01T04:52:53;1.80;99.90
28460;DHT22;32528;45.712;9.192;2023-03-01T04:54:55;1.80;99.90
28460;DHT22;32528;45.712;9.192;2023-03-01T04:56:56;1.80;99.90
28460;DHT22;32528;45.712;9.192;2023-03-01T04:58:57;1.80;99.90
28460;DHT22;32528;45.712;9.192;2023-03-01T05:00:57;1.80;99.90
28460;DHT22;32528;45.712;9.192;2023-03-01T05:03:01;1.70;99.90
28460;DHT22;32528;45.712;9.192;2023-03-01T05:05:02;1.70;99.90
28460;DHT22;32528;45.712;9.192;2023-03-01T05:07:03;1.80;99.90
28460;DHT22;32528;45.712;9.192;2023-03-01T05:09:03;1.80;99.90
28460;DHT22;32528;45.712;9.192;2023-03-01T05:11:04;1.80;99.90
28460;DHT22;32528;45.712;9.192;2023-03-01T05:13:06;1.80;99.90
28460;DHT22;32528;45.712;9.192;2023-03-01T05:15:07;1.90;99.90
28460;DHT22;32528;45.712;9.192;2023-03-01T05:17:08;1.80;99.90
28460;DHT22;32528;45.712;9.192;2023-03-01T05:19:09;1.80;99.90
28460;DHT22;32528;45.712;9.192;2023-03-01T05:21:16;1.80;99.90
28460;DHT22;32528;45.712;9.192;2023-03-01T05:23:17;1.80;99.90
28460;DHT22;32528;45.712;9.192;2023-03-01T05:25:18;1.70;99.90
28460;DHT22;32528;45.712;9.192;2023-03-01T05:27:19;1.80;99.90
28460;DHT22;32528;45.712;9.192;2023-03-01T05:29:24;1.80;99.90
28460;DHT22;32528;45.712;9.192;2023-03-01T05:31:28;1.80;99.90
28460;DHT22;32528;45.712;9.192;2023-03-01T05:33:30;1.80;99.90
28460;DHT22;32528;45.712;9.192;2023-03-01T05:35:33;1.80;99.90
28460;DHT22;32528;45.712;9.192;2023-03-01T05:37:33;1.70;99.90
28460;DHT22;32528;45.712;9.192;2023-03-01T05:39:37;1.60;99.90
28460;DHT22;32528;45.712;9.192;2023-03-01T05:41:38;1.60;99.90
28460;DHT22;32528;45.712;9.192;2023-03-01T05:43:38;1.60;99.90
28460;DHT22;32528;45.712;9.192;2023-03-01T05:45:42;1.60;99.90
28460;DHT22;32528;45.712;9.192;2023-03-01T05:47:45;1.60;99.90
28460;DHT22;32528;45.712;9.192;2023-03-01T05:49:47;1.60;99.90
28460;DHT22;32528;45.712;9.192;2023-03-01T05:51:50;1.60;99.90
28460;DHT22;32528;45.712;9.192;2023-03-01T05:53:52;1.50;99.90
28460;DHT22;32528;45.712;9.192;2023-03-01T05:55:53;1.50;99.90
28460;DHT22;32528;45.712;9.192;2023-03-01T05:57:53;1.50;99.90
28460;DHT22;32528;45.712;9.192;2023-03-01T05:59:54;1.50;99.90
28460;DHT22;32528;45.712;9.192;2023-03-01T06:01:55;1.50;99.90
28460;DHT22;32528;45.712;9.192;2023-03-01T06:03:56;1.50;99.90
28460;DHT22;32528;45.712;9.192;2023-03-01T06:05:57;1.50;99.90
28460;DHT22;32528;45.712;9.192;2023-03-01T06:07:59;1.60;99.90
28460;DHT22;32528;45.712;9.192;2023-03-01T06:10:00;1.50;99.90
28460;DHT22;32528;45.712;9.192;2023-03-01T06:12:01;1.60;99.90
28460;DHT22;32528;45.712;9.192;2023-03-01T06:14:02;1.60;99.90
28460;DHT22;32528;45.712;9.192;2023-03-01T06:16:06;1.60;99.90
28460;DHT22;32528;45.712;9.192;2023-03-01T06:18:08;1.60;99.90
28460;DHT22;32528;45.712;9.192;2023-03-01T06:20:21;1.60;99.90
28460;DHT22;32528;45.712;9.192;2023-03-01T06:22:21;1.70;99.90
28460;DHT22;32528;45.712;9.192;2023-03-01T06:24:22;1.80;99.90
28460;DHT22;32528;45.712;9.192;2023-03-01T06:26:23;1.80;99.90
28460;DHT22;32528;45.712;9.192;2023-03-01T06:28:25;1.80;99.90
28460;DHT22;32528;45.712;9.192;2023-03-01T06:30:26;1.90;99.90
28460;DHT22;32528;45.712;9.192;2023-03-01T06:32:27;2.00;99.90
28460;DHT22;32528;45.712;9.192;2023-03-01T06:34:28;2.00;99.90
28460;DHT22;32528;45.712;9.192;2023-03-01T06:36:29;2.00;99.90
28460;DHT22;32528;45.712;9.192;2023-03-01T06:38:29;2.00;99.90
28460;DHT22;32528;45.712;9.192;2023-03-01T06:40:31;2.10;99.90
28460;DHT22;32528;45.712;9.192;2023-03-01T06:42:32;2.10;99.90
28460;DHT22;32528;45.712;9.192;2023-03-01T06:44:33;2.20;99.90
28460;DHT22;32528;45.712;9.192;2023-03-01T06:46:34;2.20;99.90
28460;DHT22;32528;45.712;9.192;2023-03-01T06:48:35;2.20;99.90
28460;DHT22;32528;45.712;9.192;2023-03-01T06:50:36;2.40;99.90
28460;DHT22;32528;45.712;9.192;2023-03-01T06:52:38;2.50;99.90
28460;DHT22;32528;45.712;9.192;2023-03-01T06:54:38;2.50;99.90
28460;DHT22;32528;45.712;9.192;2023-03-01T06:56:39;2.70;99.90
28460;DHT22;32528;45.712;9.192;2023-03-01T06:58:40;2.70;99.90
28460;DHT22;32528;45.712;9.192;2023-03-01T07:00:41;2.70;99.90
28460;DHT22;32528;45.712;9.192;2023-03-01T07:02:43;2.90;99.90
28460;DHT22;32528;45.712;9.192;2023-03-01T07:04:44;3.00;99.90
28460;DHT22;32528;45.712;9.192;2023-03-01T07:06:44;3.20;99.90
28460;DHT22;32528;45.712;9.192;2023-03-01T07:08:45;3.40;99.90
28460;DHT22;32528;45.712;9.192;2023-03-01T07:10:46;3.50;99.90
28460;DHT22;32528;45.712;9.192;2023-03-01T07:12:47;3.70;99.90
28460;DHT22;32528;45.712;9.192;2023-03-01T07:14:47;4.80;99.90
28460;DHT22;32528;45.712;9.192;2023-03-01T07:16:48;6.00;99.90
28460;DHT22;32528;45.712;9.192;2023-03-01T07:18:49;6.80;99.90
28460;DHT22;32528;45.712;9.192;2023-03-01T07:20:49;6.90;97.80
28460;DHT22;32528;45.712;9.192;2023-03-01T07:22:54;6.70;96.50
28460;DHT22;32528;45.712;9.192;2023-03-01T07:24:56;6.50;96.10
28460;DHT22;32528;45.712;9.192;2023-03-01T07:26:57;6.30;96.40
28460;DHT22;32528;45.712;9.192;2023-03-01T07:29:01;6.30;96.30
28460;DHT22;32528;45.712;9.192;2023-03-01T07:31:02;6.20;96.60
28460;DHT22;32528;45.712;9.192;2023-03-01T07:33:03;6.20;97.40
28460;DHT22;32528;45.712;9.192;2023-03-01T07:35:04;6.40;97.40
28460;DHT22;32528;45.712;9.192;2023-03-01T07:37:05;6.40;97.10
28460;DHT22;32528;45.712;9.192;2023-03-01T07:39:06;6.50;97.10
28460;DHT22;32528;45.712;9.192;2023-03-01T07:41:07;6.50;97.20
28460;DHT22;32528;45.712;9.192;2023-03-01T07:43:08;6.50;97.00
28460;DHT22;32528;45.712;9.192;2023-03-01T07:45:09;6.60;97.60
28460;DHT22;32528;45.712;9.192;2023-03-01T07:47:10;7.40;98.60
28460;DHT22;32528;45.712;9.192;2023-03-01T07:49:11;7.80;96.00
28460;DHT22;32528;45.712;9.192;2023-03-01T07:51:11;7.70;95.30
28460;DHT22;32528;45.712;9.192;2023-03-01T07:53:12;7.50;95.30
28460;DHT22;32528;45.712;9.192;2023-03-01T07:55:15;7.50;95.40
28460;DHT22;32528;45.712;9.192;2023-03-01T07:57:16;7.40;95.30
28460;DHT22;32528;45.712;9.192;2023-03-01T07:59:16;7.30;95.50
28460;DHT22;32528;45.712;9.192;2023-03-01T08:01:19;7.20;95.50
28460;DHT22;32528;45.712;9.192;2023-03-01T08:03:20;7.10;95.70
28460;DHT22;32528;45.712;9.192;2023-03-01T08:05:21;7.10;95.60
28460;DHT22;32528;45.712;9.192;2023-03-01T08:07:22;7.00;95.70
28460;DHT22;32528;45.712;9.192;2023-03-01T08:09:23;6.90;95.70
28460;DHT22;32528;45.712;9.192;2023-03-01T08:11:24;6.90;95.80
28460;DHT22;32528;45.712;9.192;2023-03-01T08:13:24;6.80;95.90
28460;DHT22;32528;45.712;9.192;2023-03-01T08:15:25;6.80;96.00
28460;DHT22;32528;45.712;9.192;2023-03-01T08:17:26;6.70;96.00
28460;DHT22;32528;45.712;9.192;2023-03-01T08:19:27;6.70;95.70
28460;DHT22;32528;45.712;9.192;2023-03-01T08:21:28;6.60;95.10
28460;DHT22;32528;45.712;9.192;2023-03-01T08:23:29;6.50;94.90
28460;DHT22;32528;45.712;9.192;2023-03-01T08:25:30;6.40;94.60
28460;DHT22;32528;45.712;9.192;2023-03-01T08:27:31;6.50;94.40
28460;DHT22;32528;45.712;9.192;2023-03-01T08:29:32;6.30;93.80
28460;DHT22;32528;45.712;9.192;2023-03-01T08:31:36;6.30;93.50
28460;DHT22;32528;45.712;9.192;2023-03-01T08:33:37;6.20;93.70
28460;DHT22;32528;45.712;9.192;2023-03-01T08:35:38;6.20;94.10
28460;DHT22;32528;45.712;9.192;2023-03-01T08:37:39;6.30;94.80
28460;DHT22;32528;45.712;9.192;2023-03-01T08:39:40;6.20;94.70
28460;DHT22;32528;45.712;9.192;2023-03-01T08:41:41;6.20;94.30
28460;DHT22;32528;45.712;9.192;2023-03-01T08:43:41;6.20;94.20
28460;DHT22;32528;45.712;9.192;2023-03-01T08:45:42;6.30;94.20
28460;DHT22;32528;45.712;9.192;2023-03-01T08:47:43;6.40;93.70
28460;DHT22;32528;45.712;9.192;2023-03-01T08:49:44;6.30;93.70
28460;DHT22;32528;45.712;9.192;2023-03-01T08:51:46;6.30;93.20
28460;DHT22;32528;45.712;9.192;2023-03-01T08:53:47;6.40;93.80
28460;DHT22;32528;45.712;9.192;2023-03-01T08:55:48;6.60;94.10
28460;DHT22;32528;45.712;9.192;2023-03-01T08:57:49;6.90;93.90
28460;DHT22;32528;45.712;9.192;2023-03-01T08:59:49;7.10;93.40
28460;DHT22;32528;45.712;9.192;2023-03-01T09:01:50;7.30;92.60
28460;DHT22;32528;45.712;9.192;2023-03-01T09:03:51;7.50;92.30
28460;DHT22;32528;45.712;9.192;2023-03-01T09:05:52;7.50;92.10
28460;DHT22;32528;45.712;9.192;2023-03-01T09:07:53;7.50;91.50
28460;DHT22;32528;45.712;9.192;2023-03-01T09:09:54;7.60;91.80
28460;DHT22;32528;45.712;9.192;2023-03-01T09:11:55;7.60;91.00
28460;DHT22;32528;45.712;9.192;2023-03-01T09:13:56;7.50;90.70
28460;DHT22;32528;45.712;9.192;2023-03-01T09:15:58;7.60;90.90
28460;DHT22;32528;45.712;9.192;2023-03-01T09:18:00;7.60;90.50
28460;DHT22;32528;45.712;9.192;2023-03-01T09:20:00;7.60;90.80
28460;DHT22;32528;45.712;9.192;2023-03-01T09:22:03;7.90;91.00
28460;DHT22;32528;45.712;9.192;2023-03-01T09:24:04;8.00;90.70
28460;DHT22;32528;45.712;9.192;2023-03-01T09:26:06;8.00;90.50
28460;DHT22;32528;45.712;9.192;2023-03-01T09:28:08;7.90;90.20
28460;DHT22;32528;45.712;9.192;2023-03-01T09:30:11;7.80;90.40
28460;DHT22;32528;45.712;9.192;2023-03-01T09:32:12;8.00;90.40
28460;DHT22;32528;45.712;9.192;2023-03-01T09:34:13;7.70;88.60
28460;DHT22;32528;45.712;9.192;2023-03-01T09:36:21;7.50;89.00
28460;DHT22;32528;45.712;9.192;2023-03-01T09:38:23;7.30;89.10
28460;DHT22;32528;45.712;9.192;2023-03-01T09:40:26;7.20;89.60
28460;DHT22;32528;45.712;9.192;2023-03-01T09:42:32;7.20;90.10
28460;DHT22;32528;45.712;9.192;2023-03-01T09:46:48;7.30;90.50
28460;DHT22;32528;45.712;9.192;2023-03-01T09:48:54;7.50;90.60
28460;DHT22;32528;45.712;9.192;2023-03-01T09:50:57;7.60;90.50
28460;DHT22;32528;45.712;9.192;2023-03-01T09:53:11;7.50;90.30
28460;DHT22;32528;45.712;9.192;2023-03-01T09:55:16;7.60;90.30
28460;DHT22;32528;45.712;9.192;2023-03-01T09:57:41;7.80;90.50
28460;DHT22;32528;45.712;9.192;2023-03-01T10:02:24;8.10;90.10
28460;DHT22;32528;45.712;9.192;2023-03-01T10:06:36;8.00;90.10
28460;DHT22;32528;45.712;9.192;2023-03-01T10:08:53;8.20;90.50
28460;DHT22;32528;45.712;9.192;2023-03-01T10:10:55;8.10;90.00
28460;DHT22;32528;45.712;9.192;2023-03-01T10:12:56;8.00;89.90
28460;DHT22;32528;45.712;9.192;2023-03-01T10:15:22;8.10;90.30
28460;DHT22;32528;45.712;9.192;2023-03-01T10:19:43;8.00;90.60
28460;DHT22;32528;45.712;9.192;2023-03-01T10:21:46;8.10;90.70
28460;DHT22;32528;45.712;9.192;2023-03-01T10:23:50;8.10;90.70
28460;DHT22;32528;45.712;9.192;2023-03-01T10:29:04;8.10;90.80
28460;DHT22;32528;45.712;9.192;2023-03-01T10:31:22;8.20;90.50
28460;DHT22;32528;45.712;9.192;2023-03-01T10:33:31;8.40;90.70
28460;DHT22;32528;45.712;9.192;2023-03-01T10:35:33;8.90;90.50
28460;DHT22;32528;45.712;9.192;2023-03-01T10:37:35;8.90;89.90
28460;DHT22;32528;45.712;9.192;2023-03-01T10:40:07;8.90;90.00
28460;DHT22;32528;45.712;9.192;2023-03-01T10:42:26;8.70;89.90
28460;DHT22;32528;45.712;9.192;2023-03-01T10:44:46;8.90;90.20
28460;DHT22;32528;45.712;9.192;2023-03-01T10:46:59;9.00;90.00
28460;DHT22;32528;45.712;9.192;2023-03-01T10:49:22;8.90;89.50
28460;DHT22;32528;45.712;9.192;2023-03-01T10:51:23;8.90;89.70
28460;DHT22;32528;45.712;9.192;2023-03-01T10:53:41;8.90;90.00
28460;DHT22;32528;45.712;9.192;2023-03-01T10:55:42;9.00;90.00
28460;DHT22;32528;45.712;9.192;2023-03-01T10:57:44;9.20;89.80
28460;DHT22;32528;45.712;9.192;2023-03-01T10:59:45;9.20;89.40
28460;DHT22;32528;45.712;9.192;2023-03-01T11:01:45;9.40;89.80
28460;DHT22;32528;45.712;9.192;2023-03-01T11:08:14;9.40;88.60
28460;DHT22;32528;45.712;9.192;2023-03-01T11:10:20;9.50;88.60
28460;DHT22;32528;45.712;9.192;2023-03-01T11:12:21;9.80;88.20
28460;DHT22;32528;45.712;9.192;2023-03-01T11:14:24;10.00;87.60
28460;DHT22;32528;45.712;9.192;2023-03-01T11:16:35;10.20;87.40
28460;DHT22;32528;45.712;9.192;2023-03-01T11:18:36;10.40;86.60
28460;DHT22;32528;45.712;9.192;2023-03-01T11:20:37;10.70;86.10
28460;DHT22;32528;45.712;9.192;2023-03-01T11:22:52;10.80;85.20
28460;DHT22;32528;45.712;9.192;2023-03-01T11:24:54;10.80;85.10
28460;DHT22;32528;45.712;9.192;2023-03-01T11:26:59;10.90;84.50
28460;DHT22;32528;45.712;9.192;2023-03-01T11:29:05;11.10;83.50
28460;DHT22;32528;45.712;9.192;2023-03-01T11:31:09;11.00;83.00
28460;DHT22;32528;45.712;9.192;2023-03-01T11:35:44;11.20;81.90
28460;DHT22;32528;45.712;9.192;2023-03-01T11:37:58;11.20;82.20
28460;DHT22;32528;45.712;9.192;2023-03-01T11:44:55;12.20;81.10
28460;DHT22;32528;45.712;9.192;2023-03-01T11:52:02;12.30;79.50
28460;DHT22;32528;45.712;9.192;2023-03-01T12:00:03;12.50;78.40
28460;DHT22;32528;45.712;9.192;2023-03-01T12:11:31;12.50;79.10
28460;DHT22;32528;45.712;9.192;2023-03-01T12:25:48;12.80;79.60
28460;DHT22;32528;45.712;9.192;2023-03-01T12:32:14;13.00;79.30
28460;DHT22;32528;45.712;9.192;2023-03-01T12:41:33;13.50;76.10
28460;DHT22;32528;45.712;9.192;2023-03-01T12:43:51;13.70;77.40
28460;DHT22;32528;45.712;9.192;2023-03-01T12:48:11;13.70;77.50
28460;DHT22;32528;45.712;9.192;2023-03-01T12:50:21;13.80;75.80
28460;DHT22;32528;45.712;9.192;2023-03-01T12:54:30;13.50;76.30
28460;DHT22;32528;45.712;9.192;2023-03-01T12:56:35;13.70;75.80
28460;DHT22;32528;45.712;9.192;2023-03-01T13:03:48;13.40;75.90
28460;DHT22;32528;45.712;9.192;2023-03-01T13:06:21;13.40;75.70
28460;DHT22;32528;45.712;9.192;2023-03-01T13:08:48;13.40;75.20
28460;DHT22;32528;45.712;9.192;2023-03-01T13:10:53;13.50;76.40
28460;DHT22;32528;45.712;9.192;2023-03-01T13:14:58;13.40;76.50
28460;DHT22;32528;45.712;9.192;2023-03-01T13:16:59;13.10;76.80
28460;DHT22;32528;45.712;9.192;2023-03-01T13:19:26;12.80;75.60
28460;DHT22;32528;45.712;9.192;2023-03-01T13:21:31;12.60;76.10
28460;DHT22;32528;45.712;9.192;2023-03-01T13:23:34;12.60;77.50
28460;DHT22;32528;45.712;9.192;2023-03-01T13:32:36;12.80;77.30
28460;DHT22;32528;45.712;9.192;2023-03-01T13:34:41;12.80;77.70
28460;DHT22;32528;45.712;9.192;2023-03-01T13:42:56;12.80;77.10
28460;DHT22;32528;45.712;9.192;2023-03-01T13:44:57;12.70;76.60
28460;DHT22;32528;45.712;9.192;2023-03-01T13:49:16;12.60;74.70
28460;DHT22;32528;45.712;9.192;2023-03-01T13:51:27;12.60;76.10
28460;DHT22;32528;45.712;9.192;2023-03-01T13:53:33;12.60;75.60
28460;DHT22;32528;45.712;9.192;2023-03-01T13:55:44;12.80;76.70
28460;DHT22;32528;45.712;9.192;2023-03-01T13:57:48;12.90;75.80
28460;DHT22;32528;45.712;9.192;2023-03-01T13:59:53;13.00;75.80
28460;DHT22;32528;45.712;9.192;2023-03-01T14:01:59;13.00;75.90
28460;DHT22;32528;45.712;9.192;2023-03-01T14:04:01;12.90;75.20
28460;DHT22;32528;45.712;9.192;2023-03-01T14:06:13;12.80;74.70
28460;DHT22;32528;45.712;9.192;2023-03-01T14:08:23;12.60;75.20
28460;DHT22;32528;45.712;9.192;2023-03-01T14:10:35;12.60;75.80
28460;DHT22;32528;45.712;9.192;2023-03-01T14:12:48;12.70;76.30
28460;DHT22;32528;45.712;9.192;2023-03-01T14:15:06;12.60;76.10
28460;DHT22;32528;45.712;9.192;2023-03-01T14:17:21;12.50;75.90
28460;DHT22;32528;45.712;9.192;2023-03-01T14:19:28;12.40;77.00
28460;DHT22;32528;45.712;9.192;2023-03-01T14:21:29;12.30;76.00
28460;DHT22;32528;45.712;9.192;2023-03-01T14:23:31;12.20;76.50
28460;DHT22;32528;45.712;9.192;2023-03-01T14:25:35;12.10;76.80
28460;DHT22;32528;45.712;9.192;2023-03-01T14:27:38;12.20;77.10
28460;DHT22;32528;45.712;9.192;2023-03-01T14:29:44;12.30;76.80
28460;DHT22;32528;45.712;9.192;2023-03-01T14:31:53;12.20;76.70
28460;DHT22;32528;45.712;9.192;2023-03-01T14:33:55;12.20;76.80
28460;DHT22;32528;45.712;9.192;2023-03-01T14:36:07;12.30;76.80
28460;DHT22;32528;45.712;9.192;2023-03-01T14:38:20;12.30;77.00
28460;DHT22;32528;45.712;9.192;2023-03-01T14:40:23;12.30;76.30
28460;DHT22;32528;45.712;9.192;2023-03-01T14:42:27;12.10;75.80
28460;DHT22;32528;45.712;9.192;2023-03-01T14:44:29;12.00;76.90
28460;DHT22;32528;45.712;9.192;2023-03-01T14:46:31;11.90;77.80
28460;DHT22;32528;45.712;9.192;2023-03-01T14:48:32;11.70;76.90
28460;DHT22;32528;45.712;9.192;2023-03-01T14:50:34;11.70;77.70